sensor_id;sensor_type;location;lat;lon;timestamp;P1;durP1;ratioP1;P2;durP2;ratioP2
60205;SDS011;46072;51.554;6.846;2022-07-29T00:02:23;4.68;;;2.08;;
60205;SDS011;46072;51.554;6.846;2022-07-29T00:04:50;8.13;;;2.60;;
60205;SDS011;46072;51.554;6.846;2022-07-29T00:07:17;4.55;;;2.17;;
60205;SDS011;46072;51.554;6.846;2022-07-29T00:09:43;6.78;;;2.40;;
60205;SDS011;46072;51.554;6.846;2022-07-29T00:12:17;9.13;;;2.20;;
60205;SDS011;46072;51.554;6.846;2022-07-29T00:14:52;4.85;;;1.92;;
60205;SDS011;46072;51.554;6.846;2022-07-29T00:17:19;8.38;;;2.17;;
60205;SDS011;46072;51.554;6.846;2022-07-29T00:19:46;6.63;;;2.83;;
60205;SDS011;46072;51.554;6.846;2022-07-29T00:22:12;7.95;;;2.30;;
60205;SDS011;46072;51.554;6.846;2022-07-29T00:24:39;12.82;;;2.60;;
60205;SDS011;46072;51.554;6.846;2022-07-29T00:27:05;8.63;;;2.33;;
60205;SDS011;46072;51.554;6.846;2022-07-29T00:29:32;9.90;;;2.38;;
60205;SDS011;46072;51.554;6.846;2022-07-29T00:32:01;9.65;;;2.05;;
60205;SDS011;46072;51.554;6.846;2022-07-29T00:34:30;4.85;;;2.00;;
60205;SDS011;46072;51.554;6.846;2022-07-29T00:37:15;6.63;;;2.25;;
60205;SDS011;46072;51.554;6.846;2022-07-29T00:39:42;9.00;;;2.40;;
60205;SDS011;46072;51.554;6.846;2022-07-29T00:42:09;5.53;;;2.10;;
60205;SDS011;46072;51.554;6.846;2022-07-29T00:44:39;7.82;;;2.50;;
60205;SDS011;46072;51.554;6.846;2022-07-29T00:47:07;9.70;;;2.97;;
60205;SDS011;46072;51.554;6.846;2022-07-29T00:49:34;10.45;;;2.40;;
60205;SDS011;46072;51.554;6.846;2022-07-29T00:52:02;8.07;;;2.08;;
60205;SDS011;46072;51.554;6.846;2022-07-29T00:54:29;6.07;;;2.13;;
60205;SDS011;46072;51.554;6.846;2022-07-29T00:56:59;5.20;;;2.30;;
60205;SDS011;46072;51.554;6.846;2022-07-29T00:59:26;11.07;;;2.10;;
60205;SDS011;46072;51.554;6.846;2022-07-29T01:02:01;12.23;;;2.83;;
60205;SDS011;46072;51.554;6.846;2022-07-29T01:04:28;5.00;;;2.20;;
60205;SDS011;46072;51.554;6.846;2022-07-29T01:06:55;11.18;;;2.33;;
60205;SDS011;46072;51.554;6.846;2022-07-29T01:09:22;9.60;;;2.20;;
60205;SDS011;46072;51.554;6.846;2022-07-29T01:12:09;6.20;;;2.22;;
60205;SDS011;46072;51.554;6.846;2022-07-29T01:14:36;6.65;;;2.28;;
60205;SDS011;46072;51.554;6.846;2022-07-29T01:17:06;4.68;;;2.20;;
60205;SDS011;46072;51.554;6.846;2022-07-29T01:22:46;6.43;;;2.45;;
60205;SDS011;46072;51.554;6.846;2022-07-29T01:30:58;5.50;;;2.20;;
60205;SDS011;46072;51.554;6.846;2022-07-29T01:33:25;8.20;;;2.40;;
60205;SDS011;46072;51.554;6.846;2022-07-29T01:36:12;8.30;;;2.67;;
60205;SDS011;46072;51.554;6.846;2022-07-29T01:38:41;4.25;;;2.30;;
60205;SDS011;46072;51.554;6.846;2022-07-29T01:41:09;4.82;;;2.28;;
60205;SDS011;46072;51.554;6.846;2022-07-29T01:43:44;7.43;;;2.45;;
60205;SDS011;46072;51.554;6.846;2022-07-29T01:46:21;6.45;;;2.38;;
60205;SDS011;46072;51.554;6.846;2022-07-29T01:48:53;7.03;;;2.30;;
60205;SDS011;46072;51.554;6.846;2022-07-29T01:51:29;8.90;;;2.20;;
60205;SDS011;46072;51.554;6.846;2022-07-29T01:56:49;6.97;;;2.00;;
60205;SDS011;46072;51.554;6.846;2022-07-29T01:59:17;5.90;;;2.50;;
60205;SDS011;46072;51.554;6.846;2022-07-29T02:01:46;4.90;;;2.88;;
60205;SDS011;46072;51.554;6.846;2022-07-29T02:04:15;6.13;;;2.22;;
60205;SDS011;46072;51.554;6.846;2022-07-29T02:06:56;14.32;;;2.70;;
60205;SDS011;46072;51.554;6.846;2022-07-29T02:09:25;6.63;;;2.28;;
60205;SDS011;46072;51.554;6.846;2022-07-29T02:11:53;5.65;;;2.00;;
60205;SDS011;46072;51.554;6.846;2022-07-29T02:14:22;9.15;;;2.33;;
60205;SDS011;46072;51.554;6.846;2022-07-29T02:16:50;5.53;;;2.35;;
60205;SDS011;46072;51.554;6.846;2022-07-29T02:19:21;6.70;;;2.30;;
60205;SDS011;46072;51.554;6.846;2022-07-29T02:21:48;9.75;;;2.63;;
60205;SDS011;46072;51.554;6.846;2022-07-29T02:24:17;9.57;;;2.50;;
60205;SDS011;46072;51.554;6.846;2022-07-29T02:26:44;5.40;;;2.30;;
60205;SDS011;46072;51.554;6.846;2022-07-29T02:29:11;8.07;;;2.30;;
60205;SDS011;46072;51.554;6.846;2022-07-29T02:31:38;7.45;;;2.10;;
60205;SDS011;46072;51.554;6.846;2022-07-29T02:34:06;6.88;;;2.40;;
60205;SDS011;46072;51.554;6.846;2022-07-29T02:36:33;8.00;;;2.50;;
60205;SDS011;46072;51.554;6.846;2022-07-29T02:39:01;7.50;;;2.40;;
60205;SDS011;46072;51.554;6.846;2022-07-29T02:41:30;6.68;;;2.53;;
60205;SDS011;46072;51.554;6.846;2022-07-29T02:46:36;7.45;;;2.47;;
60205;SDS011;46072;51.554;6.846;2022-07-29T02:49:52;6.63;;;2.40;;
60205;SDS011;46072;51.554;6.846;2022-07-29T02:51:53;4.75;;;2.42;;
60205;SDS011;46072;51.554;6.846;2022-07-29T02:54:41;7.32;;;2.50;;
60205;SDS011;46072;51.554;6.846;2022-07-29T02:57:20;4.75;;;2.33;;
60205;SDS011;46072;51.554;6.846;2022-07-29T02:59:50;6.05;;;2.60;;
60205;SDS011;46072;51.554;6.846;2022-07-29T03:02:19;7.55;;;2.65;;
60205;SDS011;46072;51.554;6.846;2022-07-29T03:04:46;7.85;;;2.80;;
60205;SDS011;46072;51.554;6.846;2022-07-29T03:07:15;8.90;;;2.38;;
60205;SDS011;46072;51.554;6.846;2022-07-29T03:09:44;5.20;;;2.13;;
60205;SDS011;46072;51.554;6.846;2022-07-29T03:12:11;5.13;;;2.15;;
60205;SDS011;46072;51.554;6.846;2022-07-29T03:14:38;7.15;;;2.03;;
60205;SDS011;46072;51.554;6.846;2022-07-29T03:17:05;5.40;;;2.30;;
60205;SDS011;46072;51.554;6.846;2022-07-29T03:19:31;10.27;;;2.75;;
60205;SDS011;46072;51.554;6.846;2022-07-29T03:21:58;7.70;;;2.35;;
60205;SDS011;46072;51.554;6.846;2022-07-29T03:24:29;10.55;;;2.70;;
60205;SDS011;46072;51.554;6.846;2022-07-29T03:26:59;5.47;;;2.38;;
60205;SDS011;46072;51.554;6.846;2022-07-29T03:29:26;6.50;;;2.40;;
60205;SDS011;46072;51.554;6.846;2022-07-29T03:32:03;7.43;;;2.35;;
60205;SDS011;46072;51.554;6.846;2022-07-29T03:34:36;6.55;;;2.58;;
60205;SDS011;46072;51.554;6.846;2022-07-29T03:37:03;11.18;;;2.70;;
60205;SDS011;46072;51.554;6.846;2022-07-29T03:39:33;7.95;;;2.55;;
60205;SDS011;46072;51.554;6.846;2022-07-29T03:44:29;4.88;;;2.40;;
60205;SDS011;46072;51.554;6.846;2022-07-29T03:46:57;6.53;;;2.50;;
60205;SDS011;46072;51.554;6.846;2022-07-29T03:49:26;8.23;;;2.50;;
60205;SDS011;46072;51.554;6.846;2022-07-29T03:51:53;9.82;;;2.75;;
60205;SDS011;46072;51.554;6.846;2022-07-29T03:54:19;7.45;;;2.50;;
60205;SDS011;46072;51.554;6.846;2022-07-29T03:56:47;10.13;;;2.50;;
60205;SDS011;46072;51.554;6.846;2022-07-29T03:59:15;5.55;;;2.60;;
60205;SDS011;46072;51.554;6.846;2022-07-29T04:01:42;4.93;;;2.40;;
60205;SDS011;46072;51.554;6.846;2022-07-29T04:04:09;6.05;;;2.60;;
60205;SDS011;46072;51.554;6.846;2022-07-29T04:06:40;7.22;;;2.65;;
60205;SDS011;46072;51.554;6.846;2022-07-29T04:09:07;7.57;;;2.58;;
60205;SDS011;46072;51.554;6.846;2022-07-29T04:11:35;5.18;;;2.50;;
60205;SDS011;46072;51.554;6.846;2022-07-29T04:14:23;9.90;;;2.85;;
60205;SDS011;46072;51.554;6.846;2022-07-29T04:16:49;5.88;;;2.65;;
60205;SDS011;46072;51.554;6.846;2022-07-29T04:19:16;6.40;;;2.80;;
60205;SDS011;46072;51.554;6.846;2022-07-29T04:21:42;6.25;;;3.00;;
60205;SDS011;46072;51.554;6.846;2022-07-29T04:24:11;8.55;;;3.25;;
60205;SDS011;46072;51.554;6.846;2022-07-29T04:26:38;6.88;;;2.55;;
60205;SDS011;46072;51.554;6.846;2022-07-29T04:29:04;7.32;;;2.55;;
60205;SDS011;46072;51.554;6.846;2022-07-29T04:31:31;9.70;;;3.38;;
60205;SDS011;46072;51.554;6.846;2022-07-29T04:33:57;15.70;;;3.78;;
60205;SDS011;46072;51.554;6.846;2022-07-29T04:36:24;15.25;;;3.85;;
60205;SDS011;46072;51.554;6.846;2022-07-29T04:38:55;11.95;;;3.88;;
60205;SDS011;46072;51.554;6.846;2022-07-29T04:41:21;11.90;;;4.20;;
60205;SDS011;46072;51.554;6.846;2022-07-29T04:43:48;9.25;;;4.10;;
60205;SDS011;46072;51.554;6.846;2022-07-29T04:46:15;10.80;;;5.20;;
60205;SDS011;46072;51.554;6.846;2022-07-29T04:48:41;13.88;;;5.47;;
60205;SDS011;46072;51.554;6.846;2022-07-29T04:51:08;11.25;;;4.93;;
60205;SDS011;46072;51.554;6.846;2022-07-29T04:53:34;10.98;;;5.03;;
60205;SDS011;46072;51.554;6.846;2022-07-29T04:56:01;10.80;;;5.57;;
60205;SDS011;46072;51.554;6.846;2022-07-29T04:58:28;10.35;;;4.72;;
60205;SDS011;46072;51.554;6.846;2022-07-29T05:00:54;12.15;;;5.95;;
60205;SDS011;46072;51.554;6.846;2022-07-29T05:03:21;11.35;;;5.53;;
60205;SDS011;46072;51.554;6.846;2022-07-29T05:05:48;15.40;;;6.07;;
60205;SDS011;46072;51.554;6.846;2022-07-29T05:08:14;14.68;;;5.57;;
60205;SDS011;46072;51.554;6.846;2022-07-29T05:10:41;13.23;;;6.35;;
60205;SDS011;46072;51.554;6.846;2022-07-29T05:13:07;11.27;;;5.40;;
60205;SDS011;46072;51.554;6.846;2022-07-29T05:15:34;10.55;;;5.35;;
60205;SDS011;46072;51.554;6.846;2022-07-29T05:18:01;12.55;;;6.25;;
60205;SDS011;46072;51.554;6.846;2022-07-29T05:20:28;14.38;;;5.65;;
60205;SDS011;46072;51.554;6.846;2022-07-29T05:22:58;10.55;;;5.20;;
60205;SDS011;46072;51.554;6.846;2022-07-29T05:25:26;9.73;;;5.22;;
60205;SDS011;46072;51.554;6.846;2022-07-29T05:28:09;18.50;;;5.72;;
60205;SDS011;46072;51.554;6.846;2022-07-29T05:30:36;10.82;;;5.40;;
60205;SDS011;46072;51.554;6.846;2022-07-29T05:33:03;12.60;;;6.32;;
60205;SDS011;46072;51.554;6.846;2022-07-29T05:35:29;10.73;;;6.45;;
60205;SDS011;46072;51.554;6.846;2022-07-29T05:37:56;11.85;;;5.40;;
60205;SDS011;46072;51.554;6.846;2022-07-29T05:40:22;11.10;;;5.60;;
60205;SDS011;46072;51.554;6.846;2022-07-29T05:42:49;9.43;;;5.70;;
60205;SDS011;46072;51.554;6.846;2022-07-29T05:45:15;12.25;;;5.95;;
60205;SDS011;46072;51.554;6.846;2022-07-29T05:47:42;10.25;;;5.47;;
60205;SDS011;46072;51.554;6.846;2022-07-29T05:50:09;15.55;;;6.63;;
60205;SDS011;46072;51.554;6.846;2022-07-29T05:52:35;12.77;;;6.47;;
60205;SDS011;46072;51.554;6.846;2022-07-29T05:55:04;12.80;;;6.30;;
60205;SDS011;46072;51.554;6.846;2022-07-29T05:57:31;13.10;;;6.97;;
60205;SDS011;46072;51.554;6.846;2022-07-29T05:59:58;11.57;;;6.40;;
60205;SDS011;46072;51.554;6.846;2022-07-29T06:02:25;10.07;;;6.13;;
60205;SDS011;46072;51.554;6.846;2022-07-29T06:04:51;13.57;;;7.75;;
60205;SDS011;46072;51.554;6.846;2022-07-29T06:07:18;12.95;;;7.47;;
60205;SDS011;46072;51.554;6.846;2022-07-29T06:09:45;15.25;;;7.18;;
60205;SDS011;46072;51.554;6.846;2022-07-29T06:12:11;18.13;;;6.95;;
60205;SDS011;46072;51.554;6.846;2022-07-29T06:14:38;12.70;;;6.10;;
60205;SDS011;46072;51.554;6.846;2022-07-29T06:17:04;17.13;;;7.32;;
60205;SDS011;46072;51.554;6.846;2022-07-29T06:19:33;18.73;;;6.80;;
60205;SDS011;46072;51.554;6.846;2022-07-29T06:22:00;15.38;;;6.78;;
60205;SDS011;46072;51.554;6.846;2022-07-29T06:24:27;16.77;;;7.25;;
60205;SDS011;46072;51.554;6.846;2022-07-29T06:26:53;18.05;;;7.65;;
60205;SDS011;46072;51.554;6.846;2022-07-29T06:29:20;17.15;;;7.97;;
60205;SDS011;46072;51.554;6.846;2022-07-29T06:31:48;16.85;;;7.93;;
60205;SDS011;46072;51.554;6.846;2022-07-29T06:34:14;13.93;;;8.30;;
60205;SDS011;46072;51.554;6.846;2022-07-29T06:36:42;20.38;;;8.95;;
60205;SDS011;46072;51.554;6.846;2022-07-29T06:39:11;13.20;;;7.53;;
60205;SDS011;46072;51.554;6.846;2022-07-29T06:41:37;13.38;;;7.90;;
60205;SDS011;46072;51.554;6.846;2022-07-29T06:44:04;17.45;;;8.77;;
60205;SDS011;46072;51.554;6.846;2022-07-29T06:46:30;15.98;;;7.93;;
60205;SDS011;46072;51.554;6.846;2022-07-29T06:48:58;19.45;;;8.05;;
60205;SDS011;46072;51.554;6.846;2022-07-29T06:51:27;17.05;;;8.65;;
60205;SDS011;46072;51.554;6.846;2022-07-29T06:53:54;11.52;;;7.30;;
60205;SDS011;46072;51.554;6.846;2022-07-29T06:56:28;13.73;;;7.80;;
60205;SDS011;46072;51.554;6.846;2022-07-29T06:59:05;13.10;;;7.68;;
60205;SDS011;46072;51.554;6.846;2022-07-29T07:01:39;13.02;;;8.70;;
60205;SDS011;46072;51.554;6.846;2022-07-29T07:04:07;12.90;;;8.57;;
60205;SDS011;46072;51.554;6.846;2022-07-29T07:06:35;16.27;;;9.07;;
60205;SDS011;46072;51.554;6.846;2022-07-29T07:09:02;15.90;;;8.70;;
60205;SDS011;46072;51.554;6.846;2022-07-29T07:11:28;15.75;;;7.72;;
60205;SDS011;46072;51.554;6.846;2022-07-29T07:13:55;14.63;;;7.20;;
60205;SDS011;46072;51.554;6.846;2022-07-29T07:16:28;10.68;;;7.15;;
60205;SDS011;46072;51.554;6.846;2022-07-29T07:18:55;13.75;;;7.70;;
60205;SDS011;46072;51.554;6.846;2022-07-29T07:21:21;14.73;;;7.85;;
60205;SDS011;46072;51.554;6.846;2022-07-29T07:23:48;11.90;;;7.75;;
60205;SDS011;46072;51.554;6.846;2022-07-29T07:26:14;14.52;;;7.45;;
60205;SDS011;46072;51.554;6.846;2022-07-29T07:28:41;14.90;;;8.10;;
60205;SDS011;46072;51.554;6.846;2022-07-29T07:31:08;12.68;;;7.57;;
60205;SDS011;46072;51.554;6.846;2022-07-29T07:33:35;17.35;;;7.25;;
60205;SDS011;46072;51.554;6.846;2022-07-29T07:36:02;13.13;;;6.72;;
60205;SDS011;46072;51.554;6.846;2022-07-29T07:38:29;13.52;;;8.32;;
60205;SDS011;46072;51.554;6.846;2022-07-29T07:40:55;19.63;;;8.88;;
60205;SDS011;46072;51.554;6.846;2022-07-29T07:43:22;16.55;;;7.75;;
60205;SDS011;46072;51.554;6.846;2022-07-29T07:45:48;15.60;;;8.18;;
60205;SDS011;46072;51.554;6.846;2022-07-29T07:48:15;17.17;;;8.43;;
60205;SDS011;46072;51.554;6.846;2022-07-29T07:50:41;13.88;;;7.97;;
60205;SDS011;46072;51.554;6.846;2022-07-29T07:53:09;20.27;;;9.50;;
60205;SDS011;46072;51.554;6.846;2022-07-29T07:55:43;15.43;;;9.55;;
60205;SDS011;46072;51.554;6.846;2022-07-29T07:58:29;14.52;;;7.85;;
60205;SDS011;46072;51.554;6.846;2022-07-29T08:00:56;15.07;;;8.43;;
60205;SDS011;46072;51.554;6.846;2022-07-29T08:03:25;15.45;;;9.73;;
60205;SDS011;46072;51.554;6.846;2022-07-29T08:05:51;13.90;;;7.78;;
60205;SDS011;46072;51.554;6.846;2022-07-29T08:08:20;14.48;;;8.15;;
60205;SDS011;46072;51.554;6.846;2022-07-29T08:10:47;14.68;;;8.70;;
60205;SDS011;46072;51.554;6.846;2022-07-29T08:13:20;15.18;;;8.45;;
60205;SDS011;46072;51.554;6.846;2022-07-29T08:15:47;17.10;;;9.10;;
60205;SDS011;46072;51.554;6.846;2022-07-29T08:18:24;17.05;;;8.73;;
60205;SDS011;46072;51.554;6.846;2022-07-29T08:20:51;15.85;;;7.70;;
60205;SDS011;46072;51.554;6.846;2022-07-29T08:23:17;14.25;;;9.00;;
60205;SDS011;46072;51.554;6.846;2022-07-29T08:25:47;14.32;;;8.05;;
60205;SDS011;46072;51.554;6.846;2022-07-29T08:28:15;18.77;;;9.20;;
60205;SDS011;46072;51.554;6.846;2022-07-29T08:30:42;17.63;;;8.45;;
60205;SDS011;46072;51.554;6.846;2022-07-29T08:33:09;11.88;;;7.20;;
60205;SDS011;46072;51.554;6.846;2022-07-29T08:35:36;12.18;;;7.90;;
60205;SDS011;46072;51.554;6.846;2022-07-29T08:38:02;15.57;;;8.38;;
60205;SDS011;46072;51.554;6.846;2022-07-29T08:40:29;12.35;;;7.75;;
60205;SDS011;46072;51.554;6.846;2022-07-29T08:42:57;14.20;;;8.40;;
60205;SDS011;46072;51.554;6.846;2022-07-29T08:45:25;14.73;;;8.38;;
60205;SDS011;46072;51.554;6.846;2022-07-29T08:47:53;15.10;;;8.48;;
60205;SDS011;46072;51.554;6.846;2022-07-29T08:50:19;15.05;;;8.40;;
60205;SDS011;46072;51.554;6.846;2022-07-29T08:52:46;20.90;;;10.05;;
60205;SDS011;46072;51.554;6.846;2022-07-29T08:55:14;17.73;;;9.77;;
60205;SDS011;46072;51.554;6.846;2022-07-29T08:57:46;16.20;;;9.18;;
60205;SDS011;46072;51.554;6.846;2022-07-29T09:00:19;16.27;;;9.20;;
60205;SDS011;46072;51.554;6.846;2022-07-29T09:02:48;18.17;;;10.27;;
60205;SDS011;46072;51.554;6.846;2022-07-29T09:05:17;17.05;;;10.10;;
60205;SDS011;46072;51.554;6.846;2022-07-29T09:07:44;15.75;;;10.20;;
60205;SDS011;46072;51.554;6.846;2022-07-29T09:10:14;20.23;;;10.73;;
60205;SDS011;46072;51.554;6.846;2022-07-29T09:12:40;17.73;;;10.75;;
60205;SDS011;46072;51.554;6.846;2022-07-29T09:15:07;17.40;;;10.75;;
60205;SDS011;46072;51.554;6.846;2022-07-29T09:17:44;20.00;;;11.10;;
60205;SDS011;46072;51.554;6.846;2022-07-29T09:20:13;18.52;;;10.82;;
60205;SDS011;46072;51.554;6.846;2022-07-29T09:22:41;15.18;;;9.63;;
60205;SDS011;46072;51.554;6.846;2022-07-29T09:25:08;21.27;;;9.60;;
60205;SDS011;46072;51.554;6.846;2022-07-29T09:27:35;20.02;;;10.48;;
60205;SDS011;46072;51.554;6.846;2022-07-29T09:30:06;17.95;;;10.65;;
60205;SDS011;46072;51.554;6.846;2022-07-29T09:32:33;18.80;;;9.77;;
60205;SDS011;46072;51.554;6.846;2022-07-29T09:35:21;14.10;;;8.60;;
60205;SDS011;46072;51.554;6.846;2022-07-29T09:37:51;18.38;;;9.35;;
60205;SDS011;46072;51.554;6.846;2022-07-29T09:40:27;15.20;;;8.95;;
60205;SDS011;46072;51.554;6.846;2022-07-29T09:42:54;18.17;;;9.00;;
60205;SDS011;46072;51.554;6.846;2022-07-29T09:45:31;15.35;;;9.00;;
60205;SDS011;46072;51.554;6.846;2022-07-29T09:47:59;13.52;;;7.97;;
60205;SDS011;46072;51.554;6.846;2022-07-29T09:50:41;15.48;;;8.65;;
60205;SDS011;46072;51.554;6.846;2022-07-29T09:53:08;16.45;;;7.88;;
60205;SDS011;46072;51.554;6.846;2022-07-29T09:56:09;14.82;;;7.75;;
60205;SDS011;46072;51.554;6.846;2022-07-29T09:58:29;20.02;;;8.20;;
60205;SDS011;46072;51.554;6.846;2022-07-29T10:00:56;14.75;;;8.00;;
60205;SDS011;46072;51.554;6.846;2022-07-29T10:03:23;16.05;;;6.70;;
60205;SDS011;46072;51.554;6.846;2022-07-29T10:06:06;15.45;;;7.22;;
60205;SDS011;46072;51.554;6.846;2022-07-29T10:08:39;13.00;;;6.88;;
60205;SDS011;46072;51.554;6.846;2022-07-29T10:11:09;13.48;;;7.25;;
60205;SDS011;46072;51.554;6.846;2022-07-29T10:13:41;12.77;;;7.07;;
60205;SDS011;46072;51.554;6.846;2022-07-29T10:16:08;17.00;;;7.47;;
60205;SDS011;46072;51.554;6.846;2022-07-29T10:18:35;12.05;;;7.00;;
60205;SDS011;46072;51.554;6.846;2022-07-29T10:21:01;13.57;;;6.82;;
60205;SDS011;46072;51.554;6.846;2022-07-29T10:23:28;17.15;;;7.15;;
60205;SDS011;46072;51.554;6.846;2022-07-29T10:26:12;11.40;;;6.68;;
60205;SDS011;46072;51.554;6.846;2022-07-29T10:28:39;16.05;;;6.30;;
60205;SDS011;46072;51.554;6.846;2022-07-29T10:31:06;12.82;;;6.90;;
60205;SDS011;46072;51.554;6.846;2022-07-29T10:33:49;13.68;;;6.95;;
60205;SDS011;46072;51.554;6.846;2022-07-29T10:36:25;14.07;;;6.43;;
60205;SDS011;46072;51.554;6.846;2022-07-29T10:42:09;12.00;;;6.82;;
60205;SDS011;46072;51.554;6.846;2022-07-29T10:44:45;12.02;;;7.35;;
60205;SDS011;46072;51.554;6.846;2022-07-29T10:47:25;15.63;;;7.10;;
60205;SDS011;46072;51.554;6.846;2022-07-29T10:49:57;15.60;;;6.75;;
60205;SDS011;46072;51.554;6.846;2022-07-29T10:55:31;12.18;;;6.45;;
60205;SDS011;46072;51.554;6.846;2022-07-29T10:58:10;10.25;;;6.43;;
60205;SDS011;46072;51.554;6.846;2022-07-29T11:00:48;11.95;;;6.65;;
60205;SDS011;46072;51.554;6.846;2022-07-29T11:06:17;14.00;;;6.30;;
60205;SDS011;46072;51.554;6.846;2022-07-29T11:12:02;13.43;;;5.97;;
60205;SDS011;46072;51.554;6.846;2022-07-29T11:17:23;17.60;;;6.35;;
60205;SDS011;46072;51.554;6.846;2022-07-29T11:19:49;12.35;;;6.18;;
60205;SDS011;46072;51.554;6.846;2022-07-29T11:22:33;13.50;;;5.53;;
60205;SDS011;46072;51.554;6.846;2022-07-29T11:25:16;11.88;;;5.40;;
60205;SDS011;46072;51.554;6.846;2022-07-29T11:27:44;9.68;;;5.03;;
60205;SDS011;46072;51.554;6.846;2022-07-29T11:30:11;14.57;;;5.32;;
60205;SDS011;46072;51.554;6.846;2022-07-29T11:32:40;11.40;;;4.72;;
60205;SDS011;46072;51.554;6.846;2022-07-29T11:46:16;8.83;;;4.27;;
60205;SDS011;46072;51.554;6.846;2022-07-29T11:48:50;10.82;;;4.38;;
60205;SDS011;46072;51.554;6.846;2022-07-29T11:51:17;14.52;;;5.00;;
60205;SDS011;46072;51.554;6.846;2022-07-29T11:53:58;11.55;;;4.18;;
60205;SDS011;46072;51.554;6.846;2022-07-29T11:56:31;11.10;;;4.55;;
60205;SDS011;46072;51.554;6.846;2022-07-29T11:59:03;12.05;;;5.45;;
60205;SDS011;46072;51.554;6.846;2022-07-29T12:01:33;13.90;;;4.95;;
60205;SDS011;46072;51.554;6.846;2022-07-29T12:04:06;7.68;;;4.10;;
60205;SDS011;46072;51.554;6.846;2022-07-29T12:06:34;12.45;;;4.32;;
60205;SDS011;46072;51.554;6.846;2022-07-29T12:09:00;8.98;;;4.45;;
60205;SDS011;46072;51.554;6.846;2022-07-29T12:11:39;12.30;;;4.63;;
60205;SDS011;46072;51.554;6.846;2022-07-29T12:14:06;11.95;;;5.10;;
60205;SDS011;46072;51.554;6.846;2022-07-29T12:16:35;9.05;;;5.53;;
60205;SDS011;46072;51.554;6.846;2022-07-29T12:19:03;13.77;;;5.22;;
60205;SDS011;46072;51.554;6.846;2022-07-29T12:21:43;12.93;;;4.80;;
60205;SDS011;46072;51.554;6.846;2022-07-29T12:24:22;9.43;;;4.45;;
60205;SDS011;46072;51.554;6.846;2022-07-29T12:26:53;11.15;;;4.85;;
60205;SDS011;46072;51.554;6.846;2022-07-29T12:29:24;11.75;;;4.57;;
60205;SDS011;46072;51.554;6.846;2022-07-29T12:32:01;11.75;;;4.63;;
60205;SDS011;46072;51.554;6.846;2022-07-29T12:34:29;11.18;;;4.60;;
60205;SDS011;46072;51.554;6.846;2022-07-29T12:36:56;14.15;;;4.45;;
60205;SDS011;46072;51.554;6.846;2022-07-29T12:39:22;8.65;;;4.35;;
60205;SDS011;46072;51.554;6.846;2022-07-29T12:41:52;10.20;;;4.18;;
60205;SDS011;46072;51.554;6.846;2022-07-29T12:44:51;10.45;;;3.70;;
60205;SDS011;46072;51.554;6.846;2022-07-29T12:47:17;10.32;;;4.45;;
60205;SDS011;46072;51.554;6.846;2022-07-29T12:49:45;9.25;;;4.47;;
60205;SDS011;46072;51.554;6.846;2022-07-29T12:54:54;11.80;;;4.70;;
60205;SDS011;46072;51.554;6.846;2022-07-29T12:57:21;8.05;;;5.05;;
60205;SDS011;46072;51.554;6.846;2022-07-29T13:02:56;12.85;;;5.88;;
60205;SDS011;46072;51.554;6.846;2022-07-29T13:05:24;12.93;;;5.10;;
60205;SDS011;46072;51.554;6.846;2022-07-29T13:08:12;10.48;;;5.20;;
60205;SDS011;46072;51.554;6.846;2022-07-29T13:10:47;9.15;;;5.43;;
60205;SDS011;46072;51.554;6.846;2022-07-29T13:13:14;11.02;;;5.30;;
60205;SDS011;46072;51.554;6.846;2022-07-29T13:15:42;11.13;;;5.25;;
60205;SDS011;46072;51.554;6.846;2022-07-29T13:18:26;10.55;;;6.20;;
60205;SDS011;46072;51.554;6.846;2022-07-29T13:20:53;10.00;;;5.13;;
60205;SDS011;46072;51.554;6.846;2022-07-29T13:23:24;13.40;;;5.22;;
60205;SDS011;46072;51.554;6.846;2022-07-29T13:25:51;9.88;;;5.10;;
60205;SDS011;46072;51.554;6.846;2022-07-29T13:28:19;14.50;;;5.40;;
60205;SDS011;46072;51.554;6.846;2022-07-29T13:30:47;9.40;;;4.70;;
60205;SDS011;46072;51.554;6.846;2022-07-29T13:33:14;11.52;;;5.85;;
60205;SDS011;46072;51.554;6.846;2022-07-29T13:35:41;11.27;;;5.50;;
60205;SDS011;46072;51.554;6.846;2022-07-29T13:38:07;10.80;;;4.38;;
60205;SDS011;46072;51.554;6.846;2022-07-29T13:40:34;9.98;;;4.50;;
60205;SDS011;46072;51.554;6.846;2022-07-29T13:43:01;9.45;;;4.90;;
60205;SDS011;46072;51.554;6.846;2022-07-29T13:45:29;11.20;;;4.82;;
60205;SDS011;46072;51.554;6.846;2022-07-29T13:47:56;9.80;;;4.90;;
60205;SDS011;46072;51.554;6.846;2022-07-29T13:50:22;20.75;;;5.13;;
60205;SDS011;46072;51.554;6.846;2022-07-29T13:52:49;8.43;;;4.68;;
60205;SDS011;46072;51.554;6.846;2022-07-29T13:55:16;10.88;;;4.85;;
60205;SDS011;46072;51.554;6.846;2022-07-29T13:57:43;11.88;;;4.97;;
60205;SDS011;46072;51.554;6.846;2022-07-29T14:00:10;12.85;;;4.50;;
60205;SDS011;46072;51.554;6.846;2022-07-29T14:02:38;11.90;;;4.97;;
60205;SDS011;46072;51.554;6.846;2022-07-29T14:05:06;12.00;;;5.20;;
60205;SDS011;46072;51.554;6.846;2022-07-29T14:07:34;9.23;;;4.68;;
60205;SDS011;46072;51.554;6.846;2022-07-29T14:10:00;9.88;;;4.50;;
60205;SDS011;46072;51.554;6.846;2022-07-29T14:12:27;12.50;;;4.95;;
60205;SDS011;46072;51.554;6.846;2022-07-29T14:14:54;10.93;;;5.38;;
60205;SDS011;46072;51.554;6.846;2022-07-29T14:17:21;9.95;;;5.20;;
60205;SDS011;46072;51.554;6.846;2022-07-29T14:19:48;11.93;;;5.75;;
60205;SDS011;46072;51.554;6.846;2022-07-29T14:22:17;10.45;;;5.45;;
60205;SDS011;46072;51.554;6.846;2022-07-29T14:24:48;9.13;;;4.90;;
60205;SDS011;46072;51.554;6.846;2022-07-29T14:27:14;10.85;;;4.90;;
60205;SDS011;46072;51.554;6.846;2022-07-29T14:29:41;13.65;;;6.13;;
60205;SDS011;46072;51.554;6.846;2022-07-29T14:32:08;11.25;;;5.07;;
60205;SDS011;46072;51.554;6.846;2022-07-29T14:34:37;19.90;;;5.35;;
60205;SDS011;46072;51.554;6.846;2022-07-29T14:37:04;10.70;;;5.38;;
60205;SDS011;46072;51.554;6.846;2022-07-29T14:39:34;12.10;;;5.07;;
60205;SDS011;46072;51.554;6.846;2022-07-29T14:42:08;9.70;;;5.40;;
60205;SDS011;46072;51.554;6.846;2022-07-29T14:44:38;10.65;;;5.72;;
60205;SDS011;46072;51.554;6.846;2022-07-29T14:47:06;12.90;;;6.13;;
60205;SDS011;46072;51.554;6.846;2022-07-29T14:49:33;12.73;;;5.03;;
60205;SDS011;46072;51.554;6.846;2022-07-29T14:52:01;10.90;;;5.82;;
60205;SDS011;46072;51.554;6.846;2022-07-29T14:54:27;13.20;;;5.38;;
60205;SDS011;46072;51.554;6.846;2022-07-29T14:56:54;11.07;;;6.18;;
60205;SDS011;46072;51.554;6.846;2022-07-29T14:59:24;10.05;;;5.43;;
60205;SDS011;46072;51.554;6.846;2022-07-29T15:01:51;16.88;;;5.95;;
60205;SDS011;46072;51.554;6.846;2022-07-29T15:06:49;14.27;;;5.72;;
60205;SDS011;46072;51.554;6.846;2022-07-29T15:09:16;10.25;;;5.60;;
60205;SDS011;46072;51.554;6.846;2022-07-29T15:11:43;10.93;;;5.75;;
60205;SDS011;46072;51.554;6.846;2022-07-29T15:14:10;12.85;;;6.28;;
60205;SDS011;46072;51.554;6.846;2022-07-29T15:16:38;10.65;;;5.57;;
60205;SDS011;46072;51.554;6.846;2022-07-29T15:19:12;10.95;;;4.80;;
60205;SDS011;46072;51.554;6.846;2022-07-29T15:21:39;10.27;;;4.70;;
60205;SDS011;46072;51.554;6.846;2022-07-29T15:24:14;9.75;;;4.65;;
60205;SDS011;46072;51.554;6.846;2022-07-29T15:26:42;10.90;;;4.90;;
60205;SDS011;46072;51.554;6.846;2022-07-29T15:29:09;13.25;;;5.55;;
60205;SDS011;46072;51.554;6.846;2022-07-29T15:31:35;11.88;;;4.75;;
60205;SDS011;46072;51.554;6.846;2022-07-29T15:34:02;10.80;;;4.72;;
60205;SDS011;46072;51.554;6.846;2022-07-29T15:36:31;10.68;;;4.50;;
60205;SDS011;46072;51.554;6.846;2022-07-29T15:39:18;8.98;;;4.40;;
60205;SDS011;46072;51.554;6.846;2022-07-29T15:41:45;11.20;;;4.20;;
60205;SDS011;46072;51.554;6.846;2022-07-29T15:44:11;9.10;;;4.38;;